Darstellungsparameter: Aktuell verwendete Einstellungen:
Skalierung der Graphiken ... ?
xyx+y,   Skalierungsfaktor:      Skalierung: Modus: x, Faktor: 1
Darstellungszeitraum ... ?
Vom - - bis: - -   Zeitraum: 14.08.2015 - 14.08.2015
Min/Max/Avg-Anzeige ... ?
Zeige MMA aktuell
Zeige MMA Monat
Zeige MMA alles
Zeige --A aktuell
Zeige --A Monat
Zeige --A alles
Keine MMA-Anzeige
MMA:
Keine MMA-Graphiken
MMA-Basis: 14.08.2015 - 14.08.2015
Quicknavigation für Darstellung... ?
Tage:      1T, 2T, 3T, 5T -1T -2T -3T -5T +1T +2T +3T +5T
Wochen: 1W, 2W, 3W -1W -2W -3W +1W +2W +3W
Monate: 1M, 3M, 6M -1M -3M -6M +1M +3M +6M
Jahre:    1J, 3J, 5J, 10J -1J -3J -5J -10J +1J +3J +5J +10J
Nutze für die Darstellung ... ?
Originaldaten oder Mittelwerte auf ...
Stundenbasis Tagesbasis Wochenbasis
Monatsbasis Jahresbasis      Datenbasis: Original-Daten
Darstellen als:
Statistik (Auto) Statistik J:M      Darstellung:
Zur Graphik,    zurück zur Übersicht aller Sensoren.
 
Tabellarische Datenbersicht: ?
 
Sensor: Nr:Datum:Temp:Feuchte:Taupunkt:
Aussen-T/F 1 14-08-2015 00:00:00 24.3 C 75 % 19.58 C
2 14-08-2015 00:05:00 24.2 C 75 % 19.49 C
3 14-08-2015 00:10:00 24.2 C 76 % 19.7 C
4 14-08-2015 00:15:00 24.1 C 76 % 19.6 C
5 14-08-2015 00:20:00 24.1 C 76 % 19.6 C
6 14-08-2015 00:25:00 24.8 C 70 % 18.95 C
7 14-08-2015 00:30:00 25.6 C 65 % 18.53 C
8 14-08-2015 00:35:00 26 C 63 % 18.41 C
9 14-08-2015 00:40:00 26.1 C 62 % 18.25 C
10 14-08-2015 00:45:00 26 C 62 % 18.15 C
11 14-08-2015 00:50:00 25.9 C 61 % 17.8 C
12 14-08-2015 00:55:00 25.8 C 62 % 17.97 C
13 14-08-2015 01:00:00 25.4 C 62 % 17.59 C
14 14-08-2015 01:05:00 24.9 C 66 % 18.11 C
15 14-08-2015 01:10:00 24.5 C 67 % 17.97 C
16 14-08-2015 01:15:00 24.2 C 68 % 17.92 C
17 14-08-2015 01:20:00 24 C 69 % 17.96 C
18 14-08-2015 01:25:00 23.9 C 70 % 18.09 C
19 14-08-2015 01:30:00 23.8 C 70 % 18 C
20 14-08-2015 01:35:00 23.7 C 71 % 18.13 C
21 14-08-2015 01:40:00 23.6 C 72 % 18.26 C
22 14-08-2015 01:45:00 23.4 C 73 % 18.28 C
23 14-08-2015 01:50:00 23.2 C 75 % 18.52 C
24 14-08-2015 01:55:00 23 C 76 % 18.54 C
25 14-08-2015 02:00:00 22.8 C 77 % 18.56 C
Sensor: Nr:Datum:Temp:Feuchte:Taupunkt:
Aussen-T/F 26 14-08-2015 02:05:00 22.6 C 78 % 18.57 C
27 14-08-2015 02:10:00 22.4 C 79 % 18.58 C
28 14-08-2015 02:15:00 22.3 C 80 % 18.68 C
29 14-08-2015 02:20:00 22.3 C 80 % 18.68 C
30 14-08-2015 02:25:00 22.2 C 80 % 18.58 C
31 14-08-2015 02:30:00 22.2 C 80 % 18.58 C
32 14-08-2015 02:35:00 22.2 C 80 % 18.58 C
33 14-08-2015 02:40:00 22.2 C 80 % 18.58 C
34 14-08-2015 02:45:00 22.2 C 81 % 18.78 C
35 14-08-2015 02:50:00 22.2 C 80 % 18.58 C
36 14-08-2015 02:55:00 22.2 C 80 % 18.58 C
37 14-08-2015 03:00:00 22.2 C 80 % 18.58 C
38 14-08-2015 03:05:00 22.2 C 80 % 18.58 C
39 14-08-2015 03:10:00 22.2 C 80 % 18.58 C
40 14-08-2015 03:15:00 22.2 C 80 % 18.58 C
41 14-08-2015 03:20:00 22.1 C 80 % 18.49 C
42 14-08-2015 03:25:00 22.1 C 80 % 18.49 C
43 14-08-2015 03:30:00 22.1 C 80 % 18.49 C
44 14-08-2015 03:35:00 21.9 C 80 % 18.29 C
45 14-08-2015 03:40:00 21.8 C 81 % 18.39 C
46 14-08-2015 03:45:00 21.7 C 81 % 18.3 C
47 14-08-2015 03:50:00 21.5 C 82 % 18.3 C
48 14-08-2015 03:55:00 21.4 C 83 % 18.39 C
49 14-08-2015 04:00:00 21.4 C 83 % 18.39 C
50 14-08-2015 04:05:00 21.3 C 83 % 18.29 C
Sensor: Nr:Datum:Temp:Feuchte:Taupunkt:
Aussen-T/F 51 14-08-2015 04:10:00 21.3 C 83 % 18.29 C
52 14-08-2015 04:15:00 21.3 C 82 % 18.1 C
53 14-08-2015 04:20:00 21.4 C 83 % 18.39 C
54 14-08-2015 04:25:00 21.4 C 83 % 18.39 C
55 14-08-2015 04:30:00 21.3 C 84 % 18.49 C
56 14-08-2015 04:35:00 21.2 C 85 % 18.58 C
57 14-08-2015 04:40:00 21 C 86 % 18.57 C
58 14-08-2015 04:45:00 20.8 C 87 % 18.56 C
59 14-08-2015 04:50:00 20.7 C 88 % 18.64 C
60 14-08-2015 04:55:00 20.5 C 88 % 18.44 C
61 14-08-2015 05:00:00 20.4 C 88 % 18.34 C
62 14-08-2015 05:05:00 20.4 C 89 % 18.53 C
63 14-08-2015 05:10:00 20.3 C 89 % 18.43 C
64 14-08-2015 05:15:00 20.2 C 89 % 18.33 C
65 14-08-2015 05:20:00 20.2 C 89 % 18.33 C
66 14-08-2015 05:25:00 20.1 C 89 % 18.23 C
67 14-08-2015 05:30:00 20 C 89 % 18.13 C
68 14-08-2015 05:35:00 20 C 90 % 18.31 C
69 14-08-2015 05:40:00 19.9 C 90 % 18.21 C
70 14-08-2015 05:45:00 19.9 C 90 % 18.21 C
71 14-08-2015 05:50:00 19.9 C 90 % 18.21 C
72 14-08-2015 05:55:00 19.8 C 90 % 18.11 C
73 14-08-2015 06:00:00 19.8 C 90 % 18.11 C
74 14-08-2015 06:05:00 19.8 C 90 % 18.11 C
75 14-08-2015 06:10:00 19.7 C 90 % 18.01 C
Sensor: Nr:Datum:Temp:Feuchte:Taupunkt:
Aussen-T/F 76 14-08-2015 06:15:00 19.7 C 90 % 18.01 C
77 14-08-2015 06:20:00 19.7 C 90 % 18.01 C
78 14-08-2015 06:25:00 19.8 C 90 % 18.11 C
79 14-08-2015 06:30:00 19.8 C 90 % 18.11 C
80 14-08-2015 06:35:00 19.8 C 90 % 18.11 C
81 14-08-2015 06:40:00 19.8 C 90 % 18.11 C
82 14-08-2015 06:45:00 19.8 C 90 % 18.11 C
83 14-08-2015 06:50:00 19.8 C 90 % 18.11 C
84 14-08-2015 06:55:00 19.8 C 90 % 18.11 C
85 14-08-2015 07:00:00 19.8 C 90 % 18.11 C
86 14-08-2015 07:05:00 19.8 C 90 % 18.11 C
87 14-08-2015 07:10:00 19.9 C 90 % 18.21 C
88 14-08-2015 07:15:00 19.9 C 90 % 18.21 C
89 14-08-2015 07:20:00 19.9 C 90 % 18.21 C
90 14-08-2015 07:25:00 19.9 C 90 % 18.21 C
91 14-08-2015 07:30:00 20 C 90 % 18.31 C
92 14-08-2015 07:35:00 20 C 90 % 18.31 C
93 14-08-2015 07:40:00 20 C 90 % 18.31 C
94 14-08-2015 07:45:00 20.1 C 90 % 18.41 C
95 14-08-2015 07:50:00 20.1 C 90 % 18.41 C
96 14-08-2015 07:55:00 20.2 C 90 % 18.51 C
97 14-08-2015 08:00:00 20.3 C 90 % 18.61 C
98 14-08-2015 08:05:00 20.4 C 89 % 18.53 C
99 14-08-2015 08:10:00 20.6 C 89 % 18.72 C
100 14-08-2015 08:15:00 20.7 C 88 % 18.64 C
Sensor: Nr:Datum:Temp:Feuchte:Taupunkt:
Aussen-T/F 101 14-08-2015 08:20:00 20.8 C 88 % 18.74 C
102 14-08-2015 08:25:00 20.9 C 88 % 18.84 C
103 14-08-2015 08:30:00 21.1 C 87 % 18.85 C
104 14-08-2015 08:35:00 21.2 C 86 % 18.76 C
105 14-08-2015 08:40:00 21.3 C 86 % 18.86 C
106 14-08-2015 08:45:00 21.4 C 85 % 18.77 C
107 14-08-2015 08:50:00 21.5 C 85 % 18.87 C
108 14-08-2015 08:55:00 21.6 C 84 % 18.78 C
109 14-08-2015 09:00:00 21.7 C 82 % 18.49 C
110 14-08-2015 09:05:00 21.8 C 82 % 18.59 C
111 14-08-2015 09:10:00 22 C 80 % 18.39 C
112 14-08-2015 09:15:00 22.3 C 79 % 18.48 C
113 14-08-2015 09:20:00 22.4 C 78 % 18.37 C
114 14-08-2015 09:25:00 22.6 C 78 % 18.57 C
115 14-08-2015 09:30:00 22.5 C 78 % 18.47 C
116 14-08-2015 09:35:00 22.4 C 78 % 18.37 C
117 14-08-2015 09:40:00 22.3 C 79 % 18.48 C
118 14-08-2015 09:45:00 22.2 C 79 % 18.38 C
119 14-08-2015 09:50:00 22.2 C 79 % 18.38 C
120 14-08-2015 09:55:00 22.3 C 79 % 18.48 C
121 14-08-2015 10:00:00 22.5 C 77 % 18.27 C
122 14-08-2015 10:05:00 22.6 C 77 % 18.36 C
123 14-08-2015 10:10:00 22.6 C 76 % 18.15 C
124 14-08-2015 10:15:00 22.6 C 76 % 18.15 C
125 14-08-2015 10:20:00 22.6 C 76 % 18.15 C
Sensor: Nr:Datum:Temp:Feuchte:Taupunkt:
Aussen-T/F 126 14-08-2015 10:25:00 22.6 C 77 % 18.36 C
127 14-08-2015 10:30:00 22.6 C 77 % 18.36 C
128 14-08-2015 10:35:00 22.6 C 76 % 18.15 C
129 14-08-2015 10:40:00 22.6 C 76 % 18.15 C
130 14-08-2015 10:45:00 22.7 C 76 % 18.25 C
131 14-08-2015 10:50:00 22.7 C 76 % 18.25 C
132 14-08-2015 10:55:00 22.7 C 77 % 18.46 C
133 14-08-2015 11:00:00 22.9 C 77 % 18.65 C
134 14-08-2015 11:05:00 22.9 C 76 % 18.44 C
135 14-08-2015 11:10:00 22.7 C 77 % 18.46 C
136 14-08-2015 11:15:00 22.6 C 76 % 18.15 C
137 14-08-2015 11:20:00 22.6 C 78 % 18.57 C
138 14-08-2015 11:25:00 22.6 C 77 % 18.36 C
139 14-08-2015 11:30:00 22.7 C 77 % 18.46 C
140 14-08-2015 11:35:00 23 C 76 % 18.54 C
141 14-08-2015 11:40:00 23.2 C 75 % 18.52 C
142 14-08-2015 11:45:00 23.3 C 74 % 18.4 C
143 14-08-2015 11:50:00 23.4 C 74 % 18.5 C
144 14-08-2015 11:55:00 23.6 C 73 % 18.48 C
145 14-08-2015 12:00:00 23.8 C 72 % 18.45 C
146 14-08-2015 12:05:00 24.1 C 70 % 18.29 C
147 14-08-2015 12:10:00 24.2 C 69 % 18.15 C
148 14-08-2015 12:15:00 24.3 C 69 % 18.25 C
149 14-08-2015 12:20:00 24.7 C 69 % 18.63 C
150 14-08-2015 12:25:00 25 C 68 % 18.68 C
Sensor: Nr:Datum:Temp:Feuchte:Taupunkt:
Aussen-T/F 151 14-08-2015 12:30:00 25.5 C 65 % 18.44 C
152 14-08-2015 12:35:00 25.8 C 65 % 18.72 C
153 14-08-2015 12:40:00 26.1 C 64 % 18.76 C
154 14-08-2015 12:45:00 26.3 C 62 % 18.44 C
155 14-08-2015 12:50:00 26.3 C 62 % 18.44 C
156 14-08-2015 12:55:00 26.2 C 63 % 18.6 C
157 14-08-2015 13:00:00 26.1 C 62 % 18.25 C
158 14-08-2015 13:05:00 26.2 C 62 % 18.34 C
159 14-08-2015 13:10:00 26.3 C 62 % 18.44 C
160 14-08-2015 13:15:00 26.3 C 62 % 18.44 C
161 14-08-2015 13:20:00 26.2 C 62 % 18.34 C
162 14-08-2015 13:25:00 26.2 C 62 % 18.34 C
163 14-08-2015 13:30:00 26.5 C 61 % 18.36 C
164 14-08-2015 13:35:00 26.8 C 60 % 18.38 C
165 14-08-2015 13:40:00 27.2 C 59 % 18.49 C
166 14-08-2015 13:45:00 27.4 C 57 % 18.13 C
167 14-08-2015 13:50:00 27.1 C 58 % 18.12 C
168 14-08-2015 13:55:00 27.1 C 59 % 18.4 C
169 14-08-2015 14:00:00 27 C 58 % 18.03 C
170 14-08-2015 14:05:00 26.9 C 58 % 17.94 C
171 14-08-2015 14:10:00 26.8 C 58 % 17.84 C
172 14-08-2015 14:15:00 26.7 C 59 % 18.02 C
173 14-08-2015 14:20:00 26.9 C 58 % 17.94 C
174 14-08-2015 14:25:00 27.4 C 58 % 18.4 C
175 14-08-2015 14:30:00 27.9 C 55 % 18.02 C
Sensor: Nr:Datum:Temp:Feuchte:Taupunkt:
Aussen-T/F 176 14-08-2015 14:35:00 28.1 C 54 % 17.92 C
177 14-08-2015 14:40:00 27.9 C 54 % 17.73 C
178 14-08-2015 14:45:00 27.7 C 56 % 18.12 C
179 14-08-2015 14:50:00 27.9 C 55 % 18.02 C
180 14-08-2015 14:55:00 28.1 C 54 % 17.92 C
181 14-08-2015 15:00:00 28.3 C 55 % 18.39 C
182 14-08-2015 15:05:00 28.4 C 54 % 18.19 C
183 14-08-2015 15:10:00 28.7 C 52 % 17.87 C
184 14-08-2015 15:15:00 28.6 C 52 % 17.78 C
185 14-08-2015 15:20:00 28.3 C 53 % 17.8 C
186 14-08-2015 15:25:00 28.1 C 54 % 17.92 C
187 14-08-2015 15:30:00 27.9 C 55 % 18.02 C
188 14-08-2015 15:35:00 27.9 C 54 % 17.73 C
189 14-08-2015 15:40:00 28 C 54 % 17.82 C
190 14-08-2015 15:45:00 27.8 C 54 % 17.64 C
191 14-08-2015 15:50:00 27.7 C 54 % 17.55 C
192 14-08-2015 15:55:00 28 C 54 % 17.82 C
193 14-08-2015 16:00:00 28.7 C 52 % 17.87 C
194 14-08-2015 16:05:00 29.1 C 51 % 17.93 C
195 14-08-2015 16:10:00 29.2 C 50 % 17.71 C
196 14-08-2015 16:15:00 29.2 C 50 % 17.71 C
197 14-08-2015 16:20:00 29.1 C 50 % 17.61 C
198 14-08-2015 16:25:00 28.9 C 51 % 17.74 C
199 14-08-2015 16:30:00 28.7 C 50 % 17.25 C
200 14-08-2015 16:35:00 28.6 C 50 % 17.16 C
Sensor: Nr:Datum:Temp:Feuchte:Taupunkt:
Aussen-T/F 201 14-08-2015 16:40:00 28.3 C 50 % 16.88 C
202 14-08-2015 16:45:00 28.1 C 52 % 17.32 C
203 14-08-2015 16:50:00 27.8 C 52 % 17.04 C
204 14-08-2015 16:55:00 27.7 C 53 % 17.25 C
205 14-08-2015 17:00:00 27.9 C 54 % 17.73 C
206 14-08-2015 17:05:00 28.6 C 51 % 17.47 C
207 14-08-2015 17:10:00 29.2 C 50 % 17.71 C
208 14-08-2015 17:15:00 29.6 C 48 % 17.42 C
209 14-08-2015 17:20:00 29.3 C 49 % 17.48 C
210 14-08-2015 17:25:00 28.8 C 49 % 17.02 C
211 14-08-2015 17:30:00 28.9 C 50 % 17.43 C
212 14-08-2015 17:35:00 28.9 C 49 % 17.11 C
213 14-08-2015 17:40:00 28.8 C 49 % 17.02 C
214 14-08-2015 17:45:00 28.8 C 51 % 17.65 C
215 14-08-2015 17:50:00 29.2 C 49 % 17.39 C
216 14-08-2015 17:55:00 29.4 C 48 % 17.24 C
217 14-08-2015 18:00:00 29.5 C 48 % 17.33 C
218 14-08-2015 18:05:00 29.4 C 48 % 17.24 C
219 14-08-2015 18:10:00 29.5 C 47 % 17 C
220 14-08-2015 18:15:00 29.5 C 47 % 17 C
221 14-08-2015 18:20:00 29.6 C 47 % 17.09 C
222 14-08-2015 18:25:00 29.3 C 47 % 16.82 C
223 14-08-2015 18:30:00 28.9 C 48 % 16.79 C
224 14-08-2015 18:35:00 28.3 C 49 % 16.56 C
225 14-08-2015 18:40:00 28.2 C 49 % 16.47 C
Sensor: Nr:Datum:Temp:Feuchte:Taupunkt:
Aussen-T/F 226 14-08-2015 18:45:00 28.3 C 50 % 16.88 C
227 14-08-2015 18:50:00 28.6 C 48 % 16.51 C
228 14-08-2015 18:55:00 28.7 C 48 % 16.6 C
229 14-08-2015 19:00:00 28.9 C 48 % 16.79 C
230 14-08-2015 19:05:00 29.1 C 47 % 16.64 C
231 14-08-2015 19:10:00 28.8 C 46 % 16.03 C
232 14-08-2015 19:15:00 28.6 C 48 % 16.51 C
233 14-08-2015 19:20:00 28.3 C 49 % 16.56 C
234 14-08-2015 19:25:00 28.3 C 48 % 16.24 C
235 14-08-2015 19:30:00 28.4 C 49 % 16.65 C
236 14-08-2015 19:35:00 28.4 C 48 % 16.33 C
237 14-08-2015 19:40:00 28.4 C 48 % 16.33 C
238 14-08-2015 19:45:00 28.2 C 49 % 16.47 C
239 14-08-2015 19:50:00 28.2 C 49 % 16.47 C
240 14-08-2015 19:55:00 28.1 C 49 % 16.38 C
241 14-08-2015 20:00:00 27.9 C 49 % 16.2 C
242 14-08-2015 20:05:00 27.8 C 48 % 15.78 C
243 14-08-2015 20:10:00 27.7 C 50 % 16.33 C
244 14-08-2015 20:15:00 27.6 C 50 % 16.24 C
245 14-08-2015 20:20:00 27.6 C 51 % 16.55 C
246 14-08-2015 20:25:00 27.4 C 50 % 16.06 C
247 14-08-2015 20:30:00 27.2 C 53 % 16.79 C
248 14-08-2015 20:35:00 26.8 C 54 % 16.71 C
249 14-08-2015 20:40:00 26.5 C 56 % 17.01 C
250 14-08-2015 20:45:00 26.2 C 58 % 17.28 C
Sensor: Nr:Datum:Temp:Feuchte:Taupunkt:
Aussen-T/F 251 14-08-2015 20:50:00 25.7 C 60 % 17.35 C
252 14-08-2015 20:55:00 25.3 C 61 % 17.24 C
253 14-08-2015 21:00:00 25 C 62 % 17.21 C
254 14-08-2015 21:05:00 24.7 C 63 % 17.18 C
255 14-08-2015 21:10:00 24.3 C 63 % 16.81 C
256 14-08-2015 21:15:00 24.1 C 65 % 17.11 C
257 14-08-2015 21:20:00 23.8 C 65 % 16.83 C
258 14-08-2015 21:25:00 23.7 C 66 % 16.97 C
259 14-08-2015 21:30:00 23.5 C 67 % 17.02 C
260 14-08-2015 21:35:00 23.3 C 66 % 16.59 C
261 14-08-2015 21:40:00 23.2 C 66 % 16.5 C
262 14-08-2015 21:45:00 23 C 66 % 16.31 C
263 14-08-2015 21:50:00 22.8 C 67 % 16.35 C
264 14-08-2015 21:55:00 22.7 C 68 % 16.49 C
265 14-08-2015 22:00:00 22.6 C 68 % 16.39 C
266 14-08-2015 22:05:00 22.4 C 69 % 16.43 C
267 14-08-2015 22:10:00 22.3 C 70 % 16.56 C
268 14-08-2015 22:15:00 22.3 C 69 % 16.34 C
269 14-08-2015 22:20:00 22.3 C 70 % 16.56 C
270 14-08-2015 22:25:00 22.3 C 70 % 16.56 C
271 14-08-2015 22:30:00 22.2 C 70 % 16.47 C
272 14-08-2015 22:35:00 22.2 C 70 % 16.47 C
273 14-08-2015 22:40:00 22.2 C 70 % 16.47 C
274 14-08-2015 22:45:00 22.2 C 70 % 16.47 C
275 14-08-2015 22:50:00 22.1 C 71 % 16.6 C
Sensor: Nr:Datum:Temp:Feuchte:Taupunkt:
Aussen-T/F 276 14-08-2015 22:55:00 22.1 C 71 % 16.6 C
277 14-08-2015 23:00:00 22 C 71 % 16.5 C
278 14-08-2015 23:05:00 21.9 C 71 % 16.4 C
279 14-08-2015 23:10:00 21.9 C 71 % 16.4 C
280 14-08-2015 23:15:00 21.8 C 71 % 16.31 C
281 14-08-2015 23:20:00 21.8 C 71 % 16.31 C
282 14-08-2015 23:25:00 21.7 C 71 % 16.21 C
283 14-08-2015 23:30:00 21.7 C 71 % 16.21 C
284 14-08-2015 23:35:00 21.7 C 71 % 16.21 C
285 14-08-2015 23:40:00 21.7 C 71 % 16.21 C
286 14-08-2015 23:45:00 21.7 C 71 % 16.21 C
287 14-08-2015 23:50:00 21.7 C 71 % 16.21 C
288 14-08-2015 23:55:00 21.6 C 71 % 16.12 C

Legende:
   Min
   Max


Maximal/Minimal-Werte vom 14.08.2015 - 14.08.2015

Sensor Min Max Avg
Temp
(Aussen-T/F)
19.7 °C
14-08-2015  06:10:00
29.6 °C
14-08-2015  17:15:00
24.17 °C
Feuchte
(Aussen-T/F)
46 %
14-08-2015  19:10:00
90 %
14-08-2015  05:35:00
69.36 %
Taupunkt
(Aussen-T/F)
15.78 C
14-08-2015  20:05:00
19.7 C
14-08-2015  00:10:00
17.77 C

Die Daten stammen von einer Davis Vantage Pro 2 Wetter-Station und werden unter Linux mit der Software wview2wettercgi und aufbereitet. Alle Angaben erfolgen ohne Gewähr für ihre Vollständigkeit oder Richtigkeit.
Kontakt: Rainer Krienke krienke@uni-koblenz.de . Meine Webseiten an der Uni Koblenz oder privat.
Version: $Revision: 0.78 $